Time;durP1;ratioP1;P1;durP2;ratioP2;P2;SDS_P1;SDS_P2;PMS_P1;PMS_P2;Temp;Humidity;BMP_temperature;BMP_pressure;BME280_temperature;BME280_humidity;BME280_pressure;Samples;Min_cycle;Max_cycle;Signal;HPM_P1;HPM_P2
2023/04/19 00:00:07;;;;;;;17.83;11.18;;;18.80;47.40;;;;;;5037570;28;20650;-79
2023/04/19 00:02:34;;;;;;;16.73;10.88;;;18.80;47.40;;;;;;5039104;28;20219;-79
2023/04/19 00:05:00;;;;;;;15.05;10.10;;;18.80;47.40;;;;;;5038079;28;20202;-79
2023/04/19 00:07:29;;;;;;;15.35;10.00;;;18.80;47.40;;;;;;5037400;28;20234;-79
2023/04/19 00:09:56;;;;;;;18.10;10.20;;;18.80;47.50;;;;;;5037116;28;20208;-79
2023/04/19 00:12:23;;;;;;;15.00;9.60;;;18.80;47.50;;;;;;5036862;28;20223;-79
2023/04/19 00:14:50;;;;;;;14.02;9.80;;;18.80;47.50;;;;;;5036830;28;20224;-79
2023/04/19 00:17:18;;;;;;;16.50;10.60;;;18.70;47.50;;;;;;5036987;28;20203;-79
2023/04/19 00:19:45;;;;;;;14.95;9.55;;;18.80;47.60;;;;;;5036960;28;20203;-79
2023/04/19 00:22:12;;;;;;;13.30;9.13;;;18.70;47.50;;;;;;5021429;28;20224;-79
2023/04/19 00:24:41;;;;;;;13.85;10.15;;;18.70;47.50;;;;;;5036890;28;20196;-79
2023/04/19 00:27:08;;;;;;;12.88;9.63;;;18.70;47.50;;;;;;5037116;28;20196;-79
2023/04/19 00:29:35;;;;;;;12.95;9.50;;;18.70;47.50;;;;;;5037079;28;20291;-79
2023/04/19 00:32:04;;;;;;;13.75;10.00;;;18.70;47.50;;;;;;5036337;28;20211;-79
2023/04/19 00:34:31;;;;;;;13.32;9.70;;;18.70;47.50;;;;;;5036547;28;20226;-79
2023/04/19 00:36:59;;;;;;;11.85;8.75;;;18.70;47.70;;;;;;5036567;28;20244;-79
2023/04/19 00:39:26;;;;;;;13.95;10.00;;;18.70;47.50;;;;;;5036800;28;20200;-79
2023/04/19 00:41:56;;;;;;;14.73;9.43;;;18.70;47.50;;;;;;5036247;28;20219;-78
2023/04/19 00:44:22;;;;;;;13.18;9.82;;;18.70;47.60;;;;;;5036245;28;20200;-78
2023/04/19 00:46:49;;;;;;;13.75;9.32;;;18.60;47.50;;;;;;5035996;28;20200;-78
2023/04/19 00:49:17;;;;;;;14.43;9.63;;;18.60;47.50;;;;;;5036815;28;20196;-78
2023/04/19 00:51:44;;;;;;;12.93;9.75;;;18.60;47.50;;;;;;5036768;28;20258;-78
2023/04/19 00:54:11;;;;;;;13.25;9.55;;;18.60;47.60;;;;;;5036375;28;20225;-78
2023/04/19 00:56:39;;;;;;;13.07;9.70;;;18.60;47.60;;;;;;5036470;28;20231;-79
2023/04/19 00:59:07;;;;;;;13.07;9.05;;;18.60;47.60;;;;;;5037776;28;20207;-79
2023/04/19 01:01:35;;;;;;;12.43;9.52;;;18.60;47.60;;;;;;5037621;28;20565;-79
2023/04/19 01:04:02;;;;;;;12.23;9.43;;;18.60;47.70;;;;;;5037080;28;20564;-79
2023/04/19 01:06:30;;;;;;;13.80;9.35;;;18.60;47.70;;;;;;5038001;28;20246;-79
2023/04/19 01:08:57;;;;;;;12.75;9.70;;;18.60;47.70;;;;;;5036727;28;20661;-79
2023/04/19 01:11:25;;;;;;;12.90;9.70;;;18.60;47.70;;;;;;5035922;28;20650;-79
2023/04/19 01:13:52;;;;;;;13.88;9.35;;;18.60;47.70;;;;;;5036240;28;20212;-79
2023/04/19 01:16:20;;;;;;;12.05;8.80;;;18.60;47.70;;;;;;5036124;28;20216;-79
2023/04/19 01:18:49;;;;;;;13.90;9.27;;;18.50;47.80;;;;;;5036414;28;20235;-79
2023/04/19 01:21:16;;;;;;;13.82;9.73;;;18.50;47.70;;;;;;5037175;28;20326;-79
2023/04/19 01:23:44;;;;;;;14.35;9.50;;;18.50;47.70;;;;;;5035538;28;20294;-79
2023/04/19 01:26:12;;;;;;;11.52;8.70;;;18.50;47.70;;;;;;5036394;28;20191;-79
2023/04/19 01:28:39;;;;;;;13.65;9.55;;;18.50;47.70;;;;;;5019077;28;20195;-79
2023/04/19 01:31:06;;;;;;;12.88;9.45;;;18.50;47.70;;;;;;5036331;28;20290;-79
2023/04/19 01:33:33;;;;;;;11.35;8.60;;;18.50;47.80;;;;;;5035763;28;20230;-79
2023/04/19 01:36:00;;;;;;;10.95;9.13;;;18.50;47.80;;;;;;5035673;28;20238;-79
2023/04/19 01:38:27;;;;;;;12.90;8.68;;;18.50;47.80;;;;;;5035207;28;20659;-79
2023/04/19 01:40:56;;;;;;;11.68;8.98;;;18.50;47.80;;;;;;5035472;28;20200;-79
2023/04/19 01:43:24;;;;;;;13.30;8.93;;;18.50;47.90;;;;;;5035305;28;20224;-78
2023/04/19 01:45:52;;;;;;;12.90;9.02;;;18.50;47.90;;;;;;5035108;28;20567;-78
2023/04/19 01:48:19;;;;;;;13.43;9.00;;;18.50;47.90;;;;;;5037851;28;20199;-78
2023/04/19 01:50:47;;;;;;;12.10;8.75;;;18.50;48.40;;;;;;5036753;28;20192;-78
2023/04/19 01:53:14;;;;;;;9.65;8.60;;;18.40;47.80;;;;;;5035907;28;20220;-78
2023/04/19 01:55:41;;;;;;;11.93;9.23;;;18.50;47.90;;;;;;5035570;28;20216;-78
2023/04/19 01:58:09;;;;;;;12.50;9.15;;;18.40;47.80;;;;;;5035391;28;20207;-78
2023/04/19 02:00:37;;;;;;;11.27;8.40;;;18.40;47.90;;;;;;5034997;28;20219;-78
2023/04/19 02:03:04;;;;;;;10.93;8.77;;;18.40;47.90;;;;;;5034858;28;20228;-78
2023/04/19 02:05:31;;;;;;;12.85;8.88;;;18.40;48.00;;;;;;5034651;28;20208;-78
2023/04/19 02:08:00;;;;;;;10.57;8.38;;;18.40;47.90;;;;;;5034893;28;20644;-78
2023/04/19 02:10:30;;;;;;;11.60;8.40;;;18.40;47.90;;;;;;5034938;28;20574;-78
2023/04/19 02:12:58;;;;;;;11.00;8.65;;;18.40;48.00;;;;;;5035339;28;20212;-78
2023/04/19 02:15:26;;;;;;;11.27;8.60;;;18.30;47.90;;;;;;5034119;28;20203;-78
2023/04/19 02:18:05;;;;;;;11.48;8.90;;;18.30;47.80;;;;;;5035761;28;20215;-78
2023/04/19 02:20:35;;;;;;;11.65;8.68;;;18.30;47.90;;;;;;5035183;28;20200;-78
2023/04/19 02:23:03;;;;;;;11.98;9.18;;;18.40;48.10;;;;;;5018582;28;20635;-78
2023/04/19 02:25:31;;;;;;;11.75;9.15;;;18.30;47.90;;;;;;5034853;28;20192;-79
2023/04/19 02:27:58;;;;;;;10.90;8.65;;;18.30;48.10;;;;;;5002127;28;20631;-79
2023/04/19 02:30:27;;;;;;;9.90;8.63;;;18.30;48.20;;;;;;5017842;28;20196;-78
2023/04/19 02:32:55;;;;;;;10.35;8.15;;;18.30;48.00;;;;;;5034056;28;20212;-78
2023/04/19 02:35:22;;;;;;;9.43;8.10;;;18.30;48.00;;;;;;5034360;28;20215;-78
2023/04/19 02:37:50;;;;;;;12.50;8.80;;;18.30;48.10;;;;;;5034392;28;20242;-78
2023/04/19 02:40:19;;;;;;;11.60;9.40;;;18.30;48.10;;;;;;5034345;28;20599;-78
2023/04/19 02:42:47;;;;;;;11.88;8.70;;;18.30;48.10;;;;;;5033560;28;20212;-78
2023/04/19 02:45:14;;;;;;;10.60;8.43;;;18.30;48.30;;;;;;5034762;28;20550;-78
2023/04/19 02:47:44;;;;;;;9.77;8.32;;;18.30;48.20;;;;;;5033615;28;20192;-78
2023/04/19 02:50:12;;;;;;;9.23;7.95;;;18.30;48.30;;;;;;5033979;28;20246;-78
2023/04/19 02:52:46;;;;;;;11.02;8.10;;;18.20;48.20;;;;;;5033913;28;20220;-78
2023/04/19 02:55:13;;;;;;;12.18;9.07;;;18.20;48.20;;;;;;5033672;28;20677;-78
2023/04/19 02:57:41;;;;;;;9.98;8.48;;;18.30;48.30;;;;;;5034019;28;20599;-78
2023/04/19 03:00:11;;;;;;;10.15;8.32;;;18.20;48.20;;;;;;5033743;28;20197;-78
2023/04/19 03:02:43;;;;;;;12.00;8.85;;;18.20;48.10;;;;;;5034233;28;20625;-78
2023/04/19 03:05:10;;;;;;;8.65;7.65;;;18.20;48.20;;;;;;5033048;28;20242;-78
2023/04/19 03:07:38;;;;;;;10.70;8.98;;;18.20;48.20;;;;;;5033251;28;20218;-78
2023/04/19 03:10:06;;;;;;;10.80;8.00;;;18.20;48.00;;;;;;5033286;28;20631;-78
2023/04/19 03:12:34;;;;;;;8.77;7.78;;;18.20;48.10;;;;;;5032736;28;20223;-78
2023/04/19 03:15:01;;;;;;;9.32;7.63;;;18.20;48.10;;;;;;5033444;28;20216;-78
2023/04/19 03:17:29;;;;;;;10.60;8.40;;;18.20;48.10;;;;;;5033084;28;20227;-78
2023/04/19 03:19:57;;;;;;;9.73;8.30;;;18.30;48.20;;;;;;5033426;28;20637;-78
2023/04/19 03:22:25;;;;;;;9.95;8.23;;;18.20;48.10;;;;;;5033996;28;20224;-78
2023/04/19 03:24:52;;;;;;;9.63;8.10;;;18.20;48.20;;;;;;5034016;28;20287;-78
2023/04/19 03:27:22;;;;;;;9.35;8.00;;;18.20;48.30;;;;;;5032234;28;20619;-78
2023/04/19 03:29:56;;;;;;;10.18;8.18;;;18.30;48.60;;;;;;5032956;28;20203;-78
2023/04/19 03:32:23;;;;;;;10.27;8.20;;;18.30;48.40;;;;;;5033224;28;20219;-78
2023/04/19 03:34:50;;;;;;;9.38;7.95;;;18.30;48.30;;;;;;5032858;28;20237;-78
2023/04/19 03:37:19;;;;;;;9.07;8.07;;;18.30;48.20;;;;;;5033690;28;20322;-78
2023/04/19 03:39:46;;;;;;;9.85;8.07;;;18.30;48.30;;;;;;5034078;28;20199;-78
2023/04/19 03:42:17;;;;;;;9.85;8.00;;;18.40;48.20;;;;;;5017670;28;20220;-78
2023/04/19 03:44:55;;;;;;;9.18;7.78;;;18.40;47.90;;;;;;5033248;28;20194;-78
2023/04/19 03:47:23;;;;;;;10.05;7.90;;;18.40;47.90;;;;;;5016910;28;20192;-78
2023/04/19 03:49:54;;;;;;;11.45;7.85;;;18.50;47.90;;;;;;5034173;28;20284;-78
2023/04/19 03:52:24;;;;;;;10.57;7.75;;;18.50;47.90;;;;;;5017332;28;20588;-78
2023/04/19 03:54:52;;;;;;;10.15;7.85;;;18.50;47.90;;;;;;5033003;28;20203;-78
2023/04/19 03:57:30;;;;;;;9.77;7.65;;;18.50;47.80;;;;;;5032962;28;20223;-78
2023/04/19 04:00:00;;;;;;;8.98;7.55;;;18.50;47.70;;;;;;5016603;28;20295;-78
2023/04/19 04:02:28;;;;;;;8.30;7.50;;;18.60;47.70;;;;;;5032885;28;20222;-78
2023/04/19 04:04:55;;;;;;;9.30;7.85;;;18.60;47.50;;;;;;5032642;28;20196;-78
2023/04/19 04:07:25;;;;;;;9.68;8.20;;;18.60;47.60;;;;;;5034336;28;20192;-81
2023/04/19 04:09:53;;;;;;;9.30;8.13;;;18.50;47.50;;;;;;5034211;28;20196;-81
2023/04/19 04:12:20;;;;;;;8.05;7.25;;;18.50;47.50;;;;;;5034434;28;20216;-82
2023/04/19 04:14:48;;;;;;;8.50;7.60;;;18.50;47.70;;;;;;5034354;28;20224;-81
2023/04/19 04:17:15;;;;;;;9.60;7.97;;;18.50;47.60;;;;;;5034238;28;20871;-82
2023/04/19 04:19:42;;;;;;;8.70;7.80;;;18.50;47.70;;;;;;5033997;28;20196;-81
2023/04/19 04:22:09;;;;;;;9.35;8.00;;;18.50;47.60;;;;;;5033799;28;20239;-82
2023/04/19 04:24:42;;;;;;;8.82;7.85;;;18.40;47.50;;;;;;5037633;28;20208;-81
2023/04/19 04:27:26;;;;;;;8.43;7.53;;;18.50;47.50;;;;;;5035997;28;20188;-82
2023/04/19 04:29:55;;;;;;;8.80;7.70;;;18.50;47.50;;;;;;5034682;28;20692;-81
2023/04/19 04:32:23;;;;;;;9.75;7.47;;;18.50;47.50;;;;;;5033957;28;20707;-82
2023/04/19 04:34:56;;;;;;;9.05;7.93;;;18.50;47.40;;;;;;5033088;28;20216;-81
2023/04/19 04:37:36;;;;;;;10.02;7.97;;;18.50;47.40;;;;;;5034523;28;20216;-81
2023/04/19 04:40:08;;;;;;;9.80;8.05;;;18.50;47.40;;;;;;5036442;28;20200;-81
2023/04/19 04:42:36;;;;;;;8.05;7.22;;;18.50;47.50;;;;;;5037605;28;20629;-81
2023/04/19 04:45:04;;;;;;;8.77;7.57;;;18.50;47.50;;;;;;5036928;28;20287;-81
2023/04/19 04:47:33;;;;;;;8.32;7.18;;;18.50;47.60;;;;;;5036165;28;20246;-81
2023/04/19 04:50:04;;;;;;;9.10;8.00;;;18.50;47.60;;;;;;5021244;28;20216;-79
2023/04/19 04:52:32;;;;;;;8.07;7.22;;;18.50;47.60;;;;;;5021120;28;20580;-79
2023/04/19 04:55:24;;;;;;;7.97;7.15;;;18.50;47.50;;;;;;5037114;28;20196;-79
2023/04/19 04:57:51;;;;;;;8.45;7.32;;;18.50;47.50;;;;;;5036327;28;20266;-78
2023/04/19 05:00:25;;;;;;;8.93;8.02;;;18.50;47.50;;;;;;5035961;28;20204;-78
2023/04/19 05:03:04;;;;;;;8.75;7.80;;;18.50;47.50;;;;;;5035813;28;20585;-78
2023/04/19 05:05:35;;;;;;;8.20;7.40;;;18.50;47.60;;;;;;5036059;28;20196;-80
2023/04/19 05:08:03;;;;;;;8.45;7.63;;;18.50;47.70;;;;;;5035944;28;20196;-82
2023/04/19 05:10:32;;;;;;;9.73;7.57;;;18.50;47.50;;;;;;5036090;28;20204;-83
2023/04/19 05:13:00;;;;;;;9.68;7.72;;;18.50;47.60;;;;;;5035577;28;20242;-82
2023/04/19 05:15:29;;;;;;;9.68;8.05;;;18.50;47.50;;;;;;5036713;28;20283;-83
2023/04/19 05:17:57;;;;;;;8.77;7.40;;;18.50;47.90;;;;;;5035739;28;20220;-83
2023/04/19 05:20:24;;;;;;;9.75;7.97;;;18.50;47.80;;;;;;5035690;28;20200;-83
2023/04/19 05:23:02;;;;;;;9.02;7.65;;;18.50;47.90;;;;;;5035653;28;20629;-83
2023/04/19 05:25:31;;;;;;;9.05;8.15;;;18.50;48.10;;;;;;5019868;28;20200;-83
2023/04/19 05:28:03;;;;;;;8.23;7.43;;;18.50;48.10;;;;;;5037109;28;20203;-83
2023/04/19 05:30:37;;;;;;;8.07;7.15;;;18.50;48.30;;;;;;5035945;28;20192;-83
2023/04/19 05:33:04;;;;;;;8.90;7.88;;;18.60;48.50;;;;;;5035835;28;20224;-84
2023/04/19 05:35:31;;;;;;;9.95;8.15;;;18.60;48.50;;;;;;5036334;28;20228;-84
2023/04/19 05:37:58;;;;;;;8.10;7.30;;;18.60;48.40;;;;;;5036553;28;20215;-83
2023/04/19 05:40:25;;;;;;;8.25;7.45;;;18.60;48.40;;;;;;5035271;28;20196;-83
2023/04/19 05:42:54;;;;;;;8.13;7.32;;;18.60;48.30;;;;;;5036713;28;20224;-84
2023/04/19 05:45:21;;;;;;;8.70;7.25;;;18.60;48.40;;;;;;5042218;28;20207;-84
2023/04/19 05:47:49;;;;;;;8.38;7.32;;;18.60;48.50;;;;;;5037443;28;20192;-83
2023/04/19 05:50:35;;;;;;;9.23;7.57;;;18.70;48.70;;;;;;5039696;28;20183;-84
2023/04/19 05:53:21;;;;;;;11.77;7.47;;;18.70;48.70;;;;;;5037794;28;20243;-82
2023/04/19 05:55:49;;;;;;;8.93;7.30;;;18.70;48.80;;;;;;5037217;28;20286;-82
2023/04/19 05:58:18;;;;;;;8.18;7.13;;;18.70;48.30;;;;;;5036252;28;20283;-81
2023/04/19 06:00:45;;;;;;;7.55;6.75;;;18.70;48.40;;;;;;5035907;28;20227;-82
2023/04/19 06:03:15;;;;;;;8.23;7.20;;;18.70;48.40;;;;;;5035637;28;20220;-82
2023/04/19 06:05:43;;;;;;;9.07;7.63;;;18.70;48.40;;;;;;5035176;28;20219;-81
2023/04/19 06:08:10;;;;;;;8.35;7.43;;;18.70;48.30;;;;;;5035293;28;20267;-81
2023/04/19 06:10:37;;;;;;;8.63;7.30;;;18.70;48.30;;;;;;5034768;28;20242;-81
2023/04/19 06:13:04;;;;;;;8.73;7.55;;;18.70;48.50;;;;;;5035630;28;20269;-81
2023/04/19 06:15:33;;;;;;;9.55;7.43;;;18.70;48.50;;;;;;5035051;28;20230;-81
2023/04/19 06:18:01;;;;;;;7.55;6.65;;;18.80;48.40;;;;;;5035417;28;20583;-81
2023/04/19 06:20:28;;;;;;;7.78;6.97;;;18.80;48.10;;;;;;5034559;28;20200;-80
2023/04/19 06:22:55;;;;;;;7.68;6.80;;;18.90;48.10;;;;;;5034943;28;20228;-80
2023/04/19 06:25:23;;;;;;;8.35;7.35;;;18.90;48.00;;;;;;5036782;28;20192;-81
2023/04/19 06:27:50;;;;;;;7.75;6.95;;;18.90;47.90;;;;;;5035656;28;20250;-81
2023/04/19 06:30:17;;;;;;;7.97;7.18;;;19.00;48.20;;;;;;5034842;28;20207;-81
2023/04/19 06:32:46;;;;;;;7.82;7.03;;;19.00;47.40;;;;;;5034292;28;20676;-81
2023/04/19 06:35:13;;;;;;;8.30;7.38;;;19.10;47.30;;;;;;5034551;28;20200;-82
2023/04/19 06:37:41;;;;;;;8.10;7.30;;;19.20;47.00;;;;;;5034933;28;20238;-82
2023/04/19 06:40:10;;;;;;;9.13;6.95;;;19.30;47.00;;;;;;5034521;28;20208;-82
2023/04/19 06:42:37;;;;;;;7.55;6.60;;;19.30;46.70;;;;;;5034169;28;20248;-82
2023/04/19 06:45:07;;;;;;;8.45;6.88;;;19.40;46.80;;;;;;5034306;28;20196;-82
2023/04/19 06:47:35;;;;;;;7.15;6.47;;;19.40;46.60;;;;;;5034408;28;20219;-82
2023/04/19 06:50:04;;;;;;;7.35;6.57;;;19.30;46.40;;;;;;5018092;28;20227;-82
2023/04/19 06:52:31;;;;;;;7.70;6.82;;;19.40;46.40;;;;;;5034974;28;20228;-82
2023/04/19 06:54:58;;;;;;;9.27;7.28;;;19.30;46.30;;;;;;5036111;28;20204;-82
2023/04/19 06:57:25;;;;;;;7.35;6.65;;;19.40;46.40;;;;;;5036589;28;20239;-82
2023/04/19 06:59:54;;;;;;;7.22;6.43;;;19.40;46.20;;;;;;5018010;28;20294;-82
2023/04/19 07:02:21;;;;;;;7.28;6.47;;;19.40;46.30;;;;;;5018049;28;20207;-82
2023/04/19 07:04:48;;;;;;;7.57;6.38;;;19.40;46.10;;;;;;5017789;28;20208;-82
2023/04/19 07:07:17;;;;;;;7.80;7.00;;;19.50;46.10;;;;;;5033715;28;20203;-82
2023/04/19 07:09:44;;;;;;;7.20;6.47;;;19.50;45.90;;;;;;5033729;28;20196;-82
2023/04/19 07:12:11;;;;;;;6.97;6.28;;;19.50;45.90;;;;;;5033753;28;20271;-82
2023/04/19 07:14:38;;;;;;;7.00;6.32;;;19.50;46.00;;;;;;5017661;28;20223;-82
2023/04/19 07:17:06;;;;;;;7.07;6.38;;;19.50;45.90;;;;;;5034156;28;20305;-82
2023/04/19 07:19:34;;;;;;;7.32;6.50;;;19.50;45.90;;;;;;5033942;28;20211;-82
2023/04/19 07:22:01;;;;;;;7.57;6.88;;;19.50;46.30;;;;;;5017949;28;20212;-82
2023/04/19 07:24:30;;;;;;;7.55;6.40;;;19.60;45.80;;;;;;5017419;28;20647;-83
2023/04/19 07:27:02;;;;;;;7.18;6.47;;;19.60;45.90;;;;;;5036209;28;20575;-84
2023/04/19 07:29:29;;;;;;;7.68;6.93;;;19.60;45.50;;;;;;5034788;28;20635;-84
2023/04/19 07:31:58;;;;;;;7.10;6.40;;;19.60;45.70;;;;;;5036738;28;20196;-84
2023/04/19 07:34:31;;;;;;;7.50;6.60;;;19.60;45.70;;;;;;5034247;28;20228;-83
2023/04/19 07:36:58;;;;;;;8.35;7.20;;;19.60;45.70;;;;;;5034002;28;20192;-83
2023/04/19 07:39:26;;;;;;;6.50;5.90;;;19.60;45.70;;;;;;5033768;28;20262;-83
2023/04/19 07:41:55;;;;;;;6.75;6.13;;;19.70;45.70;;;;;;5033556;28;20196;-84
2023/04/19 07:44:22;;;;;;;6.65;6.05;;;19.90;45.70;;;;;;5034013;28;20196;-83
2023/04/19 07:46:49;;;;;;;6.55;5.95;;;20.00;45.50;;;;;;5034211;28;20196;-84
2023/04/19 07:49:17;;;;;;;7.78;6.32;;;20.10;45.30;;;;;;5033476;28;20192;-84
2023/04/19 07:51:44;;;;;;;6.57;5.97;;;20.10;45.20;;;;;;5034360;28;20207;-83
2023/04/19 07:54:11;;;;;;;6.75;6.05;;;20.20;45.10;;;;;;5033846;28;20216;-83
2023/04/19 07:56:38;;;;;;;6.97;6.15;;;20.20;45.10;;;;;;5033781;28;20204;-83
2023/04/19 07:59:07;;;;;;;7.13;6.28;;;20.10;45.60;;;;;;5034213;28;20220;-83
2023/04/19 08:01:34;;;;;;;7.57;6.25;;;20.10;45.20;;;;;;5033349;28;20579;-83
2023/04/19 08:04:01;;;;;;;6.47;5.88;;;20.10;45.30;;;;;;5033523;28;20242;-83
2023/04/19 08:06:29;;;;;;;6.72;6.07;;;20.00;45.10;;;;;;5033621;28;20204;-84
2023/04/19 08:08:56;;;;;;;7.20;6.35;;;20.00;45.20;;;;;;5033802;28;20220;-84
2023/04/19 08:11:24;;;;;;;7.63;6.82;;;20.00;45.20;;;;;;5033629;28;20204;-84
2023/04/19 08:13:51;;;;;;;6.22;5.60;;;20.10;45.20;;;;;;5037535;28;20219;-84
2023/04/19 08:16:19;;;;;;;8.15;5.78;;;20.10;45.10;;;;;;5038430;28;20283;-84
2023/04/19 08:18:50;;;;;;;7.10;6.40;;;20.10;45.10;;;;;;5037885;28;20235;-84
2023/04/19 08:21:17;;;;;;;6.30;5.70;;;20.10;45.00;;;;;;5059609;28;20251;-84
2023/04/19 08:23:45;;;;;;;6.70;6.03;;;20.20;44.90;;;;;;5060326;28;20212;-84
2023/04/19 08:26:12;;;;;;;6.43;5.82;;;20.20;44.90;;;;;;5042731;28;20206;-83
2023/04/19 08:28:40;;;;;;;6.22;5.50;;;20.20;44.80;;;;;;5044054;28;20200;-83
2023/04/19 08:31:09;;;;;;;5.75;5.15;;;20.20;44.80;;;;;;5038141;28;20200;-83
2023/04/19 08:33:37;;;;;;;7.13;5.68;;;20.20;44.90;;;;;;5038988;28;20220;-83
2023/04/19 08:36:04;;;;;;;6.10;5.55;;;20.20;44.60;;;;;;5036985;28;20200;-84
2023/04/19 08:38:32;;;;;;;6.57;5.97;;;20.30;44.60;;;;;;5045769;28;20211;-84
2023/04/19 08:41:04;;;;;;;5.60;5.10;;;20.30;44.60;;;;;;5038264;28;20196;-83
2023/04/19 08:43:32;;;;;;;6.00;5.47;;;20.30;44.40;;;;;;5049232;28;20597;-84
2023/04/19 08:45:59;;;;;;;5.68;5.07;;;20.30;44.30;;;;;;5042505;28;20220;-84
2023/04/19 08:48:26;;;;;;;5.50;5.00;;;20.30;44.40;;;;;;5039252;28;20192;-84
2023/04/19 08:51:01;;;;;;;5.70;5.20;;;20.40;44.40;;;;;;5041638;28;20207;-83
2023/04/19 08:53:50;;;;;;;5.88;5.22;;;20.40;44.40;;;;;;5039185;28;20235;-84
2023/04/19 08:56:31;;;;;;;5.53;5.03;;;20.50;44.50;;;;;;5040010;28;20207;-85
2023/04/19 08:59:16;;;;;;;5.35;4.85;;;20.40;44.20;;;;;;5039743;28;20216;-85
2023/04/19 09:01:55;;;;;;;6.15;5.55;;;20.40;44.40;;;;;;5039315;28;20200;-85
2023/04/19 09:04:22;;;;;;;5.85;5.35;;;20.40;44.30;;;;;;5025174;28;20557;-83
2023/04/19 09:06:57;;;;;;;6.18;5.57;;;20.30;43.80;;;;;;5037682;28;20195;-84
2023/04/19 09:09:25;;;;;;;5.55;5.05;;;20.40;44.90;;;;;;5036828;28;20287;-83
2023/04/19 09:11:52;;;;;;;5.63;5.05;;;20.40;44.00;;;;;;5038034;28;20569;-83
2023/04/19 09:14:20;;;;;;;5.40;4.80;;;20.50;44.10;;;;;;5037346;28;20558;-83
2023/04/19 09:16:48;;;;;;;6.47;5.20;;;20.50;43.90;;;;;;5036646;28;20207;-83
2023/04/19 09:19:32;;;;;;;5.70;5.20;;;20.60;43.90;;;;;;5023451;28;20319;-83
2023/04/19 09:25:20;;;;;;;6.10;4.82;;;20.70;43.90;;;;;;5042163;28;20200;-84
2023/04/19 09:30:59;;;;;;;5.88;5.25;;;20.80;43.50;;;;;;5026202;28;20227;-82
2023/04/19 09:33:33;;;;;;;5.50;5.00;;;20.90;43.40;;;;;;5038716;28;20227;-83
2023/04/19 09:36:30;;;;;;;5.63;5.13;;;20.90;43.40;;;;;;5042831;28;20200;-84
2023/04/19 09:39:34;;;;;;;5.43;4.93;;;20.90;43.30;;;;;;5049773;28;20238;-83
2023/04/19 09:42:08;;;;;;;5.70;4.90;;;20.90;43.20;;;;;;5043268;28;20200;-83
2023/04/19 09:44:35;;;;;;;5.82;5.03;;;20.90;43.30;;;;;;5047573;28;20204;-83
2023/04/19 09:47:02;;;;;;;5.03;4.55;;;21.00;43.50;;;;;;5048034;28;20195;-83
2023/04/19 09:49:29;;;;;;;5.55;5.05;;;21.10;43.40;;;;;;5041767;28;20192;-83
2023/04/19 09:51:57;;;;;;;6.22;4.72;;;21.20;43.10;;;;;;5040178;28;20196;-83
2023/04/19 09:54:26;;;;;;;5.45;4.95;;;21.30;43.50;;;;;;5040190;28;20203;-82
2023/04/19 09:56:53;;;;;;;5.45;4.95;;;21.40;42.90;;;;;;5039323;28;20230;-82
2023/04/19 09:59:20;;;;;;;6.10;5.05;;;21.40;42.90;;;;;;5039367;28;20310;-82
2023/04/19 10:01:48;;;;;;;5.43;4.93;;;21.40;43.00;;;;;;5039824;28;20206;-82
2023/04/19 10:04:20;;;;;;;7.00;5.50;;;21.30;42.80;;;;;;5039659;28;20601;-82
2023/04/19 10:06:48;;;;;;;5.80;5.22;;;21.30;43.00;;;;;;5039018;28;20200;-82
2023/04/19 10:09:15;;;;;;;6.03;5.43;;;21.30;43.10;;;;;;5039008;28;20218;-83
2023/04/19 10:11:47;;;;;;;5.18;4.70;;;21.20;43.00;;;;;;5035258;28;20204;-83
2023/04/19 10:14:16;;;;;;;4.80;4.40;;;21.20;43.10;;;;;;5035344;28;20226;-83
2023/04/19 10:16:43;;;;;;;7.38;5.50;;;21.20;43.10;;;;;;5035803;28;20200;-83
2023/04/19 10:19:11;;;;;;;5.57;4.78;;;21.10;42.90;;;;;;5035535;28;20270;-84
2023/04/19 10:21:38;;;;;;;5.13;4.60;;;21.20;43.10;;;;;;5035660;28;20200;-83
2023/04/19 10:24:06;;;;;;;5.50;5.00;;;21.20;43.00;;;;;;5019545;28;20306;-83
2023/04/19 10:27:07;;;;;;;5.60;5.10;;;21.20;42.90;;;;;;5036956;28;20192;-83
2023/04/19 10:29:57;;;;;;;5.20;4.70;;;21.20;43.00;;;;;;5018961;28;20221;-83
2023/04/19 10:32:25;;;;;;;5.25;4.75;;;21.20;42.90;;;;;;5018794;28;20240;-83
2023/04/19 10:34:53;;;;;;;5.40;4.90;;;21.20;42.90;;;;;;5019008;28;20331;-84
2023/04/19 10:37:22;;;;;;;4.68;4.28;;;21.20;42.80;;;;;;5019800;28;20250;-84
2023/04/19 10:39:50;;;;;;;5.10;4.68;;;21.20;42.70;;;;;;5019386;28;20330;-84
2023/04/19 10:42:20;;;;;;;5.40;4.93;;;21.20;42.80;;;;;;5018784;28;20216;-84
2023/04/19 10:45:21;;;;;;;4.80;4.43;;;21.20;42.80;;;;;;5019682;28;20200;-84
2023/04/19 10:47:49;;;;;;;5.18;4.70;;;21.20;42.90;;;;;;5015279;28;20535;-84
2023/04/19 10:50:16;;;;;;;5.03;4.63;;;21.20;42.80;;;;;;5018637;28;20278;-84
2023/04/19 10:52:43;;;;;;;5.10;4.63;;;21.20;42.80;;;;;;5018451;28;20251;-84
2023/04/19 10:55:15;;;;;;;4.88;4.47;;;21.20;42.80;;;;;;5018623;28;20215;-84
2023/04/19 10:58:02;;;;;;;5.68;5.07;;;21.20;42.80;;;;;;5017612;28;20279;-85
2023/04/19 11:00:32;;;;;;;5.28;4.78;;;21.20;42.90;;;;;;5017857;28;20220;-84
2023/04/19 11:03:02;;;;;;;5.05;4.57;;;21.20;42.80;;;;;;5019614;28;20224;-84
2023/04/19 11:05:29;;;;;;;5.03;4.63;;;21.10;42.80;;;;;;5022174;28;20200;-83
2023/04/19 11:07:57;;;;;;;5.63;5.10;;;21.10;42.80;;;;;;5022209;28;20223;-82
2023/04/19 11:10:29;;;;;;;5.05;4.55;;;21.10;42.80;;;;;;5021056;28;20254;-83
2023/04/19 11:12:56;;;;;;;5.35;4.85;;;21.10;43.00;;;;;;5019738;28;20305;-84
2023/04/19 11:15:26;;;;;;;5.03;4.60;;;21.10;42.80;;;;;;5019723;28;20227;-84
2023/04/19 11:17:54;;;;;;;5.30;4.80;;;21.10;42.80;;;;;;5019217;28;20535;-84
2023/04/19 11:20:23;;;;;;;5.28;4.78;;;21.10;42.90;;;;;;5024012;28;20243;-84
2023/04/19 11:22:51;;;;;;;5.50;5.00;;;21.00;42.90;;;;;;5047022;28;20239;-82
2023/04/19 11:25:30;;;;;;;6.00;5.40;;;21.10;42.80;;;;;;5055716;28;20204;-85
2023/04/19 11:27:57;;;;;;;5.75;5.22;;;21.00;42.70;;;;;;5055228;28;20223;-84
2023/04/19 11:30:29;;;;;;;5.53;5.03;;;21.00;42.60;;;;;;5045986;28;20212;-83
2023/04/19 11:32:57;;;;;;;5.45;4.95;;;21.00;42.80;;;;;;5037550;28;20228;-83
2023/04/19 11:35:25;;;;;;;5.45;4.95;;;21.00;42.80;;;;;;5034564;28;20258;-83
2023/04/19 11:37:52;;;;;;;5.30;4.80;;;20.90;42.70;;;;;;5034654;28;20295;-83
2023/04/19 11:40:19;;;;;;;4.82;4.43;;;20.90;42.90;;;;;;5034655;28;20266;-83
2023/04/19 11:42:53;;;;;;;5.68;5.18;;;20.80;42.90;;;;;;5035429;28;20211;-84
2023/04/19 11:45:25;;;;;;;4.85;4.45;;;20.80;42.90;;;;;;5037806;28;20250;-83
2023/04/19 11:48:00;;;;;;;5.03;4.63;;;20.80;43.10;;;;;;5038736;28;20203;-84
2023/04/19 11:50:35;;;;;;;5.15;4.65;;;20.70;43.00;;;;;;5035607;28;20572;-83
2023/04/19 11:53:15;;;;;;;5.40;4.78;;;20.80;43.10;;;;;;5038046;28;20226;-82
2023/04/19 11:55:44;;;;;;;5.43;4.95;;;20.70;43.30;;;;;;5047616;28;20263;-83
2023/04/19 11:58:28;;;;;;;4.65;4.25;;;20.70;43.90;;;;;;5045803;28;20207;-83
2023/04/19 12:00:57;;;;;;;5.68;5.18;;;20.70;43.60;;;;;;5037120;28;20181;-83
2023/04/19 12:03:25;;;;;;;6.13;5.53;;;20.60;43.50;;;;;;5037429;28;20687;-84
2023/04/19 12:05:54;;;;;;;6.07;5.50;;;20.60;43.40;;;;;;5036551;28;20290;-83
2023/04/19 12:08:31;;;;;;;5.90;5.40;;;20.60;43.40;;;;;;5037491;28;20196;-83
2023/04/19 12:10:58;;;;;;;5.70;5.20;;;20.70;43.40;;;;;;5037305;28;20184;-83
2023/04/19 12:13:26;;;;;;;5.13;4.63;;;20.60;43.40;;;;;;5037656;28;20226;-83
2023/04/19 12:16:00;;;;;;;6.50;5.90;;;20.60;43.60;;;;;;5038406;28;20227;-84
2023/04/19 12:18:44;;;;;;;5.78;5.28;;;20.60;43.70;;;;;;5037949;28;20188;-82
2023/04/19 12:21:11;;;;;;;6.13;5.53;;;20.60;43.90;;;;;;5035009;28;20200;-83
2023/04/19 12:23:38;;;;;;;6.13;5.53;;;20.60;44.00;;;;;;5036613;28;20232;-84
2023/04/19 12:26:06;;;;;;;6.78;6.18;;;20.50;44.20;;;;;;5035428;28;20216;-84
2023/04/19 12:28:33;;;;;;;7.85;6.70;;;20.60;44.40;;;;;;5035240;28;20207;-84
2023/04/19 12:31:00;;;;;;;6.97;6.38;;;20.60;44.30;;;;;;5036876;28;20663;-82
2023/04/19 12:33:28;;;;;;;6.63;6.03;;;20.60;44.30;;;;;;5035639;28;20579;-82
2023/04/19 12:35:56;;;;;;;7.15;6.50;;;20.50;44.50;;;;;;5018625;28;20207;-84
2023/04/19 12:38:23;;;;;;;6.40;5.80;;;20.40;44.70;;;;;;5033729;28;20200;-85
2023/04/19 12:40:50;;;;;;;6.72;6.13;;;20.30;44.80;;;;;;5035276;28;20243;-84
2023/04/19 12:43:17;;;;;;;5.78;5.18;;;20.30;44.90;;;;;;5035082;28;20278;-83
2023/04/19 12:45:44;;;;;;;5.80;5.30;;;20.20;44.80;;;;;;5036629;28;20223;-82
2023/04/19 12:48:11;;;;;;;6.50;5.90;;;20.20;44.90;;;;;;5035770;28;20565;-82
2023/04/19 12:50:38;;;;;;;6.90;6.30;;;20.20;44.90;;;;;;5039095;28;20645;-83
2023/04/19 12:53:10;;;;;;;6.43;5.78;;;20.20;45.00;;;;;;5036365;28;20231;-83
2023/04/19 12:55:37;;;;;;;7.18;6.47;;;20.20;45.10;;;;;;5033859;28;20204;-84
2023/04/19 12:58:04;;;;;;;7.85;5.95;;;20.10;45.10;;;;;;5033707;28;20231;-84
2023/04/19 13:00:31;;;;;;;7.22;6.60;;;20.10;45.30;;;;;;5036660;28;20219;-84